sensor_id;sensor_type;location;lat;lon;timestamp;temperature;humidity
9875;DHT22;4976;46.786;7.632;2022-08-19T08:58:21;16.50;99.90
9875;DHT22;4976;46.786;7.632;2022-08-19T09:00:53;16.50;99.90
9875;DHT22;4976;46.786;7.632;2022-08-19T09:03:25;16.50;99.90
9875;DHT22;4976;46.786;7.632;2022-08-19T09:06:20;16.40;99.90
9875;DHT22;4976;46.786;7.632;2022-08-19T09:09:02;16.50;99.90
9875;DHT22;4976;46.786;7.632;2022-08-19T09:11:50;16.60;99.90
9875;DHT22;4976;46.786;7.632;2022-08-19T09:14:36;16.70;99.90
9875;DHT22;4976;46.786;7.632;2022-08-19T09:17:30;16.80;99.90
9875;DHT22;4976;46.786;7.632;2022-08-19T09:20:26;16.70;99.90
9875;DHT22;4976;46.786;7.632;2022-08-19T09:23:01;16.70;99.90
9875;DHT22;4976;46.786;7.632;2022-08-19T09:25:57;16.80;99.90
9875;DHT22;4976;46.786;7.632;2022-08-19T09:28:31;16.90;99.90
9875;DHT22;4976;46.786;7.632;2022-08-19T09:31:00;17.00;99.90
9875;DHT22;4976;46.786;7.632;2022-08-19T09:33:31;17.00;99.90
9875;DHT22;4976;46.786;7.632;2022-08-19T09:36:16;16.80;99.90
9875;DHT22;4976;46.786;7.632;2022-08-19T09:38:59;16.80;99.90
9875;DHT22;4976;46.786;7.632;2022-08-19T09:41:56;16.80;99.90
9875;DHT22;4976;46.786;7.632;2022-08-19T09:44:44;16.90;99.90
9875;DHT22;4976;46.786;7.632;2022-08-19T09:47:25;16.90;99.90
9875;DHT22;4976;46.786;7.632;2022-08-19T09:49:59;17.10;99.90
9875;DHT22;4976;46.786;7.632;2022-08-19T09:52:40;17.30;99.90
9875;DHT22;4976;46.786;7.632;2022-08-19T09:55:09;17.40;99.90
9875;DHT22;4976;46.786;7.632;2022-08-19T09:57:37;17.80;99.90
9875;DHT22;4976;46.786;7.632;2022-08-19T10:00:08;18.00;99.90
9875;DHT22;4976;46.786;7.632;2022-08-19T10:02:35;18.10;99.90
9875;DHT22;4976;46.786;7.632;2022-08-19T10:05:03;18.20;99.90
9875;DHT22;4976;46.786;7.632;2022-08-19T10:07:48;18.10;99.90
9875;DHT22;4976;46.786;7.632;2022-08-19T10:10:16;18.10;99.90
9875;DHT22;4976;46.786;7.632;2022-08-19T10:12:43;17.90;99.90
9875;DHT22;4976;46.786;7.632;2022-08-19T10:15:14;17.60;99.90
9875;DHT22;4976;46.786;7.632;2022-08-19T10:17:42;17.40;99.90
9875;DHT22;4976;46.786;7.632;2022-08-19T10:20:10;17.30;99.90
9875;DHT22;4976;46.786;7.632;2022-08-19T10:22:37;17.20;99.90
9875;DHT22;4976;46.786;7.632;2022-08-19T10:25:06;17.30;99.90
9875;DHT22;4976;46.786;7.632;2022-08-19T10:27:33;17.40;99.90
9875;DHT22;4976;46.786;7.632;2022-08-19T10:30:01;17.50;99.90
9875;DHT22;4976;46.786;7.632;2022-08-19T10:32:29;17.50;99.90
9875;DHT22;4976;46.786;7.632;2022-08-19T10:34:57;17.40;99.90
9875;DHT22;4976;46.786;7.632;2022-08-19T10:37:24;17.40;99.90
9875;DHT22;4976;46.786;7.632;2022-08-19T10:39:51;17.40;99.90
9875;DHT22;4976;46.786;7.632;2022-08-19T10:42:19;17.50;99.90
9875;DHT22;4976;46.786;7.632;2022-08-19T10:44:46;17.60;99.90
9875;DHT22;4976;46.786;7.632;2022-08-19T10:47:13;17.70;99.90
9875;DHT22;4976;46.786;7.632;2022-08-19T10:49:43;18.00;99.90
9875;DHT22;4976;46.786;7.632;2022-08-19T10:52:26;18.20;99.90
9875;DHT22;4976;46.786;7.632;2022-08-19T10:55:04;18.40;99.90
9875;DHT22;4976;46.786;7.632;2022-08-19T10:57:49;18.60;99.90
9875;DHT22;4976;46.786;7.632;2022-08-19T11:00:18;18.70;99.90
9875;DHT22;4976;46.786;7.632;2022-08-19T11:02:46;18.80;99.90
9875;DHT22;4976;46.786;7.632;2022-08-19T11:05:15;18.80;99.90
9875;DHT22;4976;46.786;7.632;2022-08-19T11:07:43;18.60;99.90
9875;DHT22;4976;46.786;7.632;2022-08-19T11:10:13;18.50;99.90
9875;DHT22;4976;46.786;7.632;2022-08-19T11:12:44;18.40;99.90
9875;DHT22;4976;46.786;7.632;2022-08-19T11:15:12;18.40;99.90
9875;DHT22;4976;46.786;7.632;2022-08-19T11:17:40;18.40;99.90
9875;DHT22;4976;46.786;7.632;2022-08-19T11:20:10;18.30;99.90
9875;DHT22;4976;46.786;7.632;2022-08-19T11:22:39;18.20;99.90
9875;DHT22;4976;46.786;7.632;2022-08-19T11:25:08;18.10;99.90
9875;DHT22;4976;46.786;7.632;2022-08-19T11:27:38;18.10;99.90
9875;DHT22;4976;46.786;7.632;2022-08-19T11:30:08;18.10;99.90
9875;DHT22;4976;46.786;7.632;2022-08-19T11:32:36;18.10;99.90
9875;DHT22;4976;46.786;7.632;2022-08-19T11:35:04;17.90;99.90
9875;DHT22;4976;46.786;7.632;2022-08-19T11:37:31;17.80;99.90
9875;DHT22;4976;46.786;7.632;2022-08-19T11:40:06;17.80;99.90
9875;DHT22;4976;46.786;7.632;2022-08-19T11:42:34;17.80;99.90
9875;DHT22;4976;46.786;7.632;2022-08-19T11:45:18;17.90;99.90
9875;DHT22;4976;46.786;7.632;2022-08-19T11:47:45;18.20;99.90
9875;DHT22;4976;46.786;7.632;2022-08-19T11:50:13;18.40;99.90
9875;DHT22;4976;46.786;7.632;2022-08-19T11:52:40;18.50;99.90
9875;DHT22;4976;46.786;7.632;2022-08-19T11:55:11;18.60;99.90
9875;DHT22;4976;46.786;7.632;2022-08-19T11:57:40;18.60;99.90
9875;DHT22;4976;46.786;7.632;2022-08-19T12:00:10;18.70;99.90
9875;DHT22;4976;46.786;7.632;2022-08-19T12:02:38;18.70;99.90
9875;DHT22;4976;46.786;7.632;2022-08-19T12:05:06;18.70;99.90
9875;DHT22;4976;46.786;7.632;2022-08-19T12:07:33;18.60;99.90
9875;DHT22;4976;46.786;7.632;2022-08-19T12:10:00;18.80;99.90
9875;DHT22;4976;46.786;7.632;2022-08-19T12:12:30;18.90;99.90
9875;DHT22;4976;46.786;7.632;2022-08-19T12:14:57;19.00;99.90
9875;DHT22;4976;46.786;7.632;2022-08-19T12:17:24;19.20;96.90
9875;DHT22;4976;46.786;7.632;2022-08-19T12:19:52;19.30;97.00
9875;DHT22;4976;46.786;7.632;2022-08-19T12:22:19;19.30;99.90
9875;DHT22;4976;46.786;7.632;2022-08-19T12:24:47;19.20;99.90
9875;DHT22;4976;46.786;7.632;2022-08-19T12:27:16;19.20;99.90
9875;DHT22;4976;46.786;7.632;2022-08-19T12:29:44;19.10;99.90
9875;DHT22;4976;46.786;7.632;2022-08-19T12:32:12;19.20;99.90
9875;DHT22;4976;46.786;7.632;2022-08-19T12:34:39;19.40;99.90
9875;DHT22;4976;46.786;7.632;2022-08-19T12:37:07;19.40;99.90
9875;DHT22;4976;46.786;7.632;2022-08-19T12:39:36;19.20;99.90
9875;DHT22;4976;46.786;7.632;2022-08-19T12:42:04;19.10;99.90
9875;DHT22;4976;46.786;7.632;2022-08-19T12:44:33;18.80;99.90
9875;DHT22;4976;46.786;7.632;2022-08-19T12:47:01;18.70;99.90
9875;DHT22;4976;46.786;7.632;2022-08-19T12:49:30;18.60;99.90
9875;DHT22;4976;46.786;7.632;2022-08-19T12:51:59;18.40;99.90
9875;DHT22;4976;46.786;7.632;2022-08-19T12:54:27;18.30;99.90
9875;DHT22;4976;46.786;7.632;2022-08-19T12:56:56;18.40;99.90
9875;DHT22;4976;46.786;7.632;2022-08-19T12:59:23;18.20;99.90
9875;DHT22;4976;46.786;7.632;2022-08-19T13:01:51;17.90;99.90
9875;DHT22;4976;46.786;7.632;2022-08-19T13:04:20;17.70;99.90
9875;DHT22;4976;46.786;7.632;2022-08-19T13:06:47;17.70;99.90
9875;DHT22;4976;46.786;7.632;2022-08-19T13:09:14;17.80;99.90
9875;DHT22;4976;46.786;7.632;2022-08-19T13:11:41;18.00;99.90
9875;DHT22;4976;46.786;7.632;2022-08-19T13:14:09;17.80;99.90
9875;DHT22;4976;46.786;7.632;2022-08-19T13:16:36;17.90;99.90
9875;DHT22;4976;46.786;7.632;2022-08-19T13:19:04;17.80;99.90
9875;DHT22;4976;46.786;7.632;2022-08-19T13:21:34;17.80;99.90
9875;DHT22;4976;46.786;7.632;2022-08-19T13:24:02;17.80;99.90
9875;DHT22;4976;46.786;7.632;2022-08-19T13:26:29;17.80;99.90
9875;DHT22;4976;46.786;7.632;2022-08-19T13:28:56;17.90;99.90
9875;DHT22;4976;46.786;7.632;2022-08-19T13:31:41;17.90;99.90
9875;DHT22;4976;46.786;7.632;2022-08-19T13:34:28;17.80;99.90
9875;DHT22;4976;46.786;7.632;2022-08-19T13:36:58;17.80;99.90
9875;DHT22;4976;46.786;7.632;2022-08-19T13:39:25;17.70;99.90
9875;DHT22;4976;46.786;7.632;2022-08-19T13:41:53;17.80;99.90
9875;DHT22;4976;46.786;7.632;2022-08-19T13:44:20;17.90;99.90
9875;DHT22;4976;46.786;7.632;2022-08-19T13:46:48;18.00;99.90
9875;DHT22;4976;46.786;7.632;2022-08-19T13:49:16;18.00;99.90
9875;DHT22;4976;46.786;7.632;2022-08-19T13:51:43;17.90;99.90
9875;DHT22;4976;46.786;7.632;2022-08-19T13:54:12;17.70;99.90
9875;DHT22;4976;46.786;7.632;2022-08-19T13:56:43;17.80;99.90
9875;DHT22;4976;46.786;7.632;2022-08-19T13:59:11;17.80;99.90
9875;DHT22;4976;46.786;7.632;2022-08-19T14:01:38;17.80;99.90
9875;DHT22;4976;46.786;7.632;2022-08-19T14:04:06;17.80;99.90
9875;DHT22;4976;46.786;7.632;2022-08-19T14:06:33;17.90;99.90
9875;DHT22;4976;46.786;7.632;2022-08-19T14:09:01;17.90;99.90
9875;DHT22;4976;46.786;7.632;2022-08-19T14:11:30;18.00;99.90
9875;DHT22;4976;46.786;7.632;2022-08-19T14:13:57;17.90;99.90
9875;DHT22;4976;46.786;7.632;2022-08-19T14:16:24;17.90;99.90
9875;DHT22;4976;46.786;7.632;2022-08-19T14:18:53;17.80;99.90
9875;DHT22;4976;46.786;7.632;2022-08-19T14:21:22;17.80;99.90
9875;DHT22;4976;46.786;7.632;2022-08-19T14:23:51;17.90;99.90
9875;DHT22;4976;46.786;7.632;2022-08-19T14:26:19;17.90;99.90
9875;DHT22;4976;46.786;7.632;2022-08-19T14:28:48;18.00;99.90
9875;DHT22;4976;46.786;7.632;2022-08-19T14:31:17;18.00;99.90
9875;DHT22;4976;46.786;7.632;2022-08-19T14:33:45;18.00;99.90
9875;DHT22;4976;46.786;7.632;2022-08-19T14:36:13;18.10;99.90
9875;DHT22;4976;46.786;7.632;2022-08-19T14:38:40;18.20;99.90
9875;DHT22;4976;46.786;7.632;2022-08-19T14:41:13;18.40;99.90
9875;DHT22;4976;46.786;7.632;2022-08-19T14:43:42;18.50;99.90
9875;DHT22;4976;46.786;7.632;2022-08-19T14:46:13;18.60;99.90
9875;DHT22;4976;46.786;7.632;2022-08-19T14:48:41;18.70;99.90
9875;DHT22;4976;46.786;7.632;2022-08-19T14:51:08;18.60;99.90
9875;DHT22;4976;46.786;7.632;2022-08-19T14:53:35;18.60;99.90
9875;DHT22;4976;46.786;7.632;2022-08-19T14:56:08;18.60;99.90
9875;DHT22;4976;46.786;7.632;2022-08-19T14:58:36;18.70;99.90
9875;DHT22;4976;46.786;7.632;2022-08-19T15:01:04;18.80;99.90
9875;DHT22;4976;46.786;7.632;2022-08-19T15:03:32;18.80;99.90
9875;DHT22;4976;46.786;7.632;2022-08-19T15:06:00;18.90;99.90
9875;DHT22;4976;46.786;7.632;2022-08-19T15:08:30;18.70;99.90
9875;DHT22;4976;46.786;7.632;2022-08-19T15:10:59;18.80;99.90
9875;DHT22;4976;46.786;7.632;2022-08-19T15:13:28;18.70;99.90
9875;DHT22;4976;46.786;7.632;2022-08-19T15:15:56;18.60;99.90
9875;DHT22;4976;46.786;7.632;2022-08-19T15:18:24;18.60;99.90
9875;DHT22;4976;46.786;7.632;2022-08-19T15:20:53;18.60;99.90
9875;DHT22;4976;46.786;7.632;2022-08-19T15:23:21;18.70;99.90
9875;DHT22;4976;46.786;7.632;2022-08-19T15:25:49;18.70;99.90
9875;DHT22;4976;46.786;7.632;2022-08-19T15:28:21;18.70;99.90
9875;DHT22;4976;46.786;7.632;2022-08-19T15:30:48;18.70;99.90
9875;DHT22;4976;46.786;7.632;2022-08-19T15:33:16;18.50;99.90
9875;DHT22;4976;46.786;7.632;2022-08-19T15:35:47;18.40;99.90
9875;DHT22;4976;46.786;7.632;2022-08-19T15:38:17;18.40;99.90
9875;DHT22;4976;46.786;7.632;2022-08-19T15:40:47;18.30;99.90
9875;DHT22;4976;46.786;7.632;2022-08-19T15:43:14;18.30;99.90
9875;DHT22;4976;46.786;7.632;2022-08-19T15:45:42;18.30;99.90
9875;DHT22;4976;46.786;7.632;2022-08-19T15:48:10;18.30;99.90
9875;DHT22;4976;46.786;7.632;2022-08-19T15:50:37;18.30;99.90
9875;DHT22;4976;46.786;7.632;2022-08-19T15:53:06;18.20;99.90
9875;DHT22;4976;46.786;7.632;2022-08-19T15:55:40;18.10;99.90
9875;DHT22;4976;46.786;7.632;2022-08-19T15:58:11;18.20;99.90
9875;DHT22;4976;46.786;7.632;2022-08-19T16:00:57;18.30;99.90
9875;DHT22;4976;46.786;7.632;2022-08-19T16:03:41;18.30;99.90
9875;DHT22;4976;46.786;7.632;2022-08-19T16:06:26;18.30;99.90
9875;DHT22;4976;46.786;7.632;2022-08-19T16:08:54;18.30;99.90
9875;DHT22;4976;46.786;7.632;2022-08-19T16:11:26;18.40;99.90
9875;DHT22;4976;46.786;7.632;2022-08-19T16:13:54;18.40;99.90
9875;DHT22;4976;46.786;7.632;2022-08-19T16:16:24;18.20;99.90
9875;DHT22;4976;46.786;7.632;2022-08-19T16:18:53;17.90;99.90
9875;DHT22;4976;46.786;7.632;2022-08-19T16:21:26;17.80;99.90
9875;DHT22;4976;46.786;7.632;2022-08-19T16:23:59;17.60;99.90
9875;DHT22;4976;46.786;7.632;2022-08-19T16:26:29;17.60;99.90
9875;DHT22;4976;46.786;7.632;2022-08-19T16:28:57;17.50;99.90
9875;DHT22;4976;46.786;7.632;2022-08-19T16:31:25;17.50;99.90
9875;DHT22;4976;46.786;7.632;2022-08-19T16:33:54;17.20;99.90
9875;DHT22;4976;46.786;7.632;2022-08-19T16:36:22;17.10;99.90
9875;DHT22;4976;46.786;7.632;2022-08-19T16:38:52;17.10;99.90
9875;DHT22;4976;46.786;7.632;2022-08-19T16:44:14;17.30;99.90
9875;DHT22;4976;46.786;7.632;2022-08-19T16:46:45;17.20;99.90
9875;DHT22;4976;46.786;7.632;2022-08-19T16:49:16;17.20;99.90
9875;DHT22;4976;46.786;7.632;2022-08-19T16:51:47;17.20;99.90
9875;DHT22;4976;46.786;7.632;2022-08-19T16:54:16;17.30;99.90
9875;DHT22;4976;46.786;7.632;2022-08-19T16:56:45;17.20;99.90
9875;DHT22;4976;46.786;7.632;2022-08-19T16:59:14;17.20;99.90
9875;DHT22;4976;46.786;7.632;2022-08-19T17:01:42;17.30;99.90
9875;DHT22;4976;46.786;7.632;2022-08-19T17:04:09;17.30;99.90
9875;DHT22;4976;46.786;7.632;2022-08-19T17:06:37;17.30;99.90
9875;DHT22;4976;46.786;7.632;2022-08-19T17:09:06;17.30;99.90
9875;DHT22;4976;46.786;7.632;2022-08-19T17:11:34;17.30;99.90
9875;DHT22;4976;46.786;7.632;2022-08-19T17:14:04;17.20;99.90
9875;DHT22;4976;46.786;7.632;2022-08-19T17:16:33;17.20;99.90
9875;DHT22;4976;46.786;7.632;2022-08-19T17:19:04;17.10;99.90
9875;DHT22;4976;46.786;7.632;2022-08-19T17:21:34;17.10;99.90
9875;DHT22;4976;46.786;7.632;2022-08-19T17:24:04;17.20;99.90
9875;DHT22;4976;46.786;7.632;2022-08-19T17:26:32;17.10;99.90
9875;DHT22;4976;46.786;7.632;2022-08-19T17:28:59;17.00;99.90
9875;DHT22;4976;46.786;7.632;2022-08-19T17:31:29;16.90;99.90
9875;DHT22;4976;46.786;7.632;2022-08-19T17:33:57;16.90;99.90
9875;DHT22;4976;46.786;7.632;2022-08-19T17:36:26;16.90;99.90
9875;DHT22;4976;46.786;7.632;2022-08-19T17:38:55;16.90;99.90
9875;DHT22;4976;46.786;7.632;2022-08-19T17:41:23;16.90;99.90
9875;DHT22;4976;46.786;7.632;2022-08-19T17:43:51;17.00;99.90
9875;DHT22;4976;46.786;7.632;2022-08-19T17:46:19;17.00;99.90
9875;DHT22;4976;46.786;7.632;2022-08-19T17:48:49;17.10;99.90
9875;DHT22;4976;46.786;7.632;2022-08-19T17:51:21;17.10;99.90
9875;DHT22;4976;46.786;7.632;2022-08-19T17:53:50;17.10;99.90
9875;DHT22;4976;46.786;7.632;2022-08-19T17:56:18;17.00;99.90
9875;DHT22;4976;46.786;7.632;2022-08-19T17:58:45;17.00;99.90
9875;DHT22;4976;46.786;7.632;2022-08-19T18:01:14;17.10;99.90
9875;DHT22;4976;46.786;7.632;2022-08-19T18:03:41;17.10;99.90
9875;DHT22;4976;46.786;7.632;2022-08-19T18:06:10;17.00;99.90
9875;DHT22;4976;46.786;7.632;2022-08-19T18:08:39;16.90;99.90
9875;DHT22;4976;46.786;7.632;2022-08-19T18:11:07;16.80;99.90
9875;DHT22;4976;46.786;7.632;2022-08-19T18:13:35;16.80;99.90
9875;DHT22;4976;46.786;7.632;2022-08-19T18:16:03;16.70;99.90
9875;DHT22;4976;46.786;7.632;2022-08-19T18:18:31;16.70;99.90
9875;DHT22;4976;46.786;7.632;2022-08-19T18:20:58;16.60;99.90
9875;DHT22;4976;46.786;7.632;2022-08-19T18:23:27;16.70;99.90
9875;DHT22;4976;46.786;7.632;2022-08-19T18:25:54;16.80;99.90
9875;DHT22;4976;46.786;7.632;2022-08-19T18:28:24;16.90;99.90
9875;DHT22;4976;46.786;7.632;2022-08-19T18:30:51;16.80;99.90
9875;DHT22;4976;46.786;7.632;2022-08-19T18:33:18;16.90;99.90
9875;DHT22;4976;46.786;7.632;2022-08-19T18:35:47;16.90;99.90
9875;DHT22;4976;46.786;7.632;2022-08-19T18:38:18;16.80;99.90
9875;DHT22;4976;46.786;7.632;2022-08-19T18:41:04;16.80;99.90
9875;DHT22;4976;46.786;7.632;2022-08-19T18:43:49;16.80;99.90
9875;DHT22;4976;46.786;7.632;2022-08-19T18:46:33;16.90;99.90
9875;DHT22;4976;46.786;7.632;2022-08-19T18:49:22;16.90;99.90
9875;DHT22;4976;46.786;7.632;2022-08-19T18:51:50;16.80;99.90
9875;DHT22;4976;46.786;7.632;2022-08-19T18:54:17;16.80;99.90
9875;DHT22;4976;46.786;7.632;2022-08-19T18:56:48;16.80;99.90
9875;DHT22;4976;46.786;7.632;2022-08-19T18:59:17;16.70;99.90
9875;DHT22;4976;46.786;7.632;2022-08-19T19:01:46;16.70;99.90
9875;DHT22;4976;46.786;7.632;2022-08-19T19:04:17;16.70;99.90
9875;DHT22;4976;46.786;7.632;2022-08-19T19:06:44;16.70;99.90
9875;DHT22;4976;46.786;7.632;2022-08-19T19:09:16;16.60;99.90
9875;DHT22;4976;46.786;7.632;2022-08-19T19:12:01;16.70;99.90
9875;DHT22;4976;46.786;7.632;2022-08-19T19:14:30;16.80;99.90
9875;DHT22;4976;46.786;7.632;2022-08-19T19:16:58;16.80;99.90
9875;DHT22;4976;46.786;7.632;2022-08-19T19:19:27;16.80;99.90
9875;DHT22;4976;46.786;7.632;2022-08-19T19:21:57;16.70;99.90
9875;DHT22;4976;46.786;7.632;2022-08-19T19:24:27;16.70;99.90
9875;DHT22;4976;46.786;7.632;2022-08-19T19:26:58;16.70;99.90
9875;DHT22;4976;46.786;7.632;2022-08-19T19:29:26;16.70;99.90
9875;DHT22;4976;46.786;7.632;2022-08-19T19:31:53;16.70;99.90
9875;DHT22;4976;46.786;7.632;2022-08-19T19:34:22;16.70;99.90
9875;DHT22;4976;46.786;7.632;2022-08-19T19:36:50;16.60;99.90
9875;DHT22;4976;46.786;7.632;2022-08-19T19:39:18;16.60;99.90
9875;DHT22;4976;46.786;7.632;2022-08-19T19:42:05;16.60;99.90
9875;DHT22;4976;46.786;7.632;2022-08-19T19:44:37;16.30;99.90
9875;DHT22;4976;46.786;7.632;2022-08-19T19:47:04;16.30;99.90
9875;DHT22;4976;46.786;7.632;2022-08-19T19:49:32;16.30;99.90
9875;DHT22;4976;46.786;7.632;2022-08-19T19:52:02;16.40;99.90
9875;DHT22;4976;46.786;7.632;2022-08-19T19:54:29;16.40;99.90
9875;DHT22;4976;46.786;7.632;2022-08-19T19:56:57;16.40;99.90
9875;DHT22;4976;46.786;7.632;2022-08-19T19:59:25;16.50;99.90
9875;DHT22;4976;46.786;7.632;2022-08-19T20:01:53;16.60;99.90
9875;DHT22;4976;46.786;7.632;2022-08-19T20:04:21;16.60;99.90
9875;DHT22;4976;46.786;7.632;2022-08-19T20:06:49;16.70;99.90
9875;DHT22;4976;46.786;7.632;2022-08-19T20:09:17;16.80;99.90
9875;DHT22;4976;46.786;7.632;2022-08-19T20:11:46;16.80;99.90
9875;DHT22;4976;46.786;7.632;2022-08-19T20:14:16;16.70;99.90
9875;DHT22;4976;46.786;7.632;2022-08-19T20:16:46;16.60;99.90
9875;DHT22;4976;46.786;7.632;2022-08-19T20:19:17;16.50;99.90
9875;DHT22;4976;46.786;7.632;2022-08-19T20:21:46;16.40;99.90
9875;DHT22;4976;46.786;7.632;2022-08-19T20:24:16;16.30;99.90
9875;DHT22;4976;46.786;7.632;2022-08-19T20:26:47;16.50;99.90
9875;DHT22;4976;46.786;7.632;2022-08-19T20:29:15;16.50;99.90
9875;DHT22;4976;46.786;7.632;2022-08-19T20:31:46;16.50;99.90
9875;DHT22;4976;46.786;7.632;2022-08-19T20:34:14;16.50;99.90
9875;DHT22;4976;46.786;7.632;2022-08-19T20:36:42;16.40;99.90
9875;DHT22;4976;46.786;7.632;2022-08-19T20:39:10;16.40;99.90
9875;DHT22;4976;46.786;7.632;2022-08-19T20:41:38;16.50;99.90
9875;DHT22;4976;46.786;7.632;2022-08-19T20:44:06;16.50;99.90
9875;DHT22;4976;46.786;7.632;2022-08-19T20:46:34;16.40;99.90
9875;DHT22;4976;46.786;7.632;2022-08-19T20:49:03;16.40;99.90
9875;DHT22;4976;46.786;7.632;2022-08-19T20:51:30;16.30;99.90
9875;DHT22;4976;46.786;7.632;2022-08-19T20:53:58;16.40;99.90
9875;DHT22;4976;46.786;7.632;2022-08-19T20:56:26;16.20;99.90
9875;DHT22;4976;46.786;7.632;2022-08-19T20:58:53;16.20;99.90
9875;DHT22;4976;46.786;7.632;2022-08-19T21:01:20;16.20;99.90
9875;DHT22;4976;46.786;7.632;2022-08-19T21:03:48;16.20;99.90
9875;DHT22;4976;46.786;7.632;2022-08-19T21:06:17;16.20;99.90
9875;DHT22;4976;46.786;7.632;2022-08-19T21:08:45;16.20;99.90
9875;DHT22;4976;46.786;7.632;2022-08-19T21:11:12;16.20;99.90
9875;DHT22;4976;46.786;7.632;2022-08-19T21:13:40;16.20;99.90
9875;DHT22;4976;46.786;7.632;2022-08-19T21:16:07;16.10;99.90
9875;DHT22;4976;46.786;7.632;2022-08-19T21:18:34;16.10;99.90
9875;DHT22;4976;46.786;7.632;2022-08-19T21:21:02;16.10;99.90
9875;DHT22;4976;46.786;7.632;2022-08-19T21:23:31;16.20;99.90
9875;DHT22;4976;46.786;7.632;2022-08-19T21:25:59;16.10;99.90
9875;DHT22;4976;46.786;7.632;2022-08-19T21:28:27;16.10;99.90
9875;DHT22;4976;46.786;7.632;2022-08-19T21:30:55;16.10;99.90
9875;DHT22;4976;46.786;7.632;2022-08-19T21:33:23;16.10;99.90
9875;DHT22;4976;46.786;7.632;2022-08-19T21:35:50;16.10;99.90
9875;DHT22;4976;46.786;7.632;2022-08-19T21:38:17;16.00;99.90
9875;DHT22;4976;46.786;7.632;2022-08-19T21:40:46;15.90;99.90
9875;DHT22;4976;46.786;7.632;2022-08-19T21:43:16;15.80;99.90
9875;DHT22;4976;46.786;7.632;2022-08-19T21:45:44;15.80;99.90
9875;DHT22;4976;46.786;7.632;2022-08-19T21:48:12;15.70;99.90
9875;DHT22;4976;46.786;7.632;2022-08-19T21:50:39;15.60;99.90
9875;DHT22;4976;46.786;7.632;2022-08-19T21:53:07;15.60;99.90
9875;DHT22;4976;46.786;7.632;2022-08-19T21:55:34;15.60;99.90
9875;DHT22;4976;46.786;7.632;2022-08-19T21:58:02;15.40;99.90
